createdAt,value
2022-11-03T00:01:37.509Z,22.02
2022-11-03T00:04:06.545Z,22.02
2022-11-03T00:06:34.650Z,22.01
2022-11-03T00:09:05.255Z,22.03
2022-11-03T00:11:35.489Z,22.02
2022-11-03T00:14:03.924Z,22.01
2022-11-03T00:16:32.216Z,22.01
2022-11-03T00:19:00.132Z,22.02
2022-11-03T00:21:28.344Z,22.00
2022-11-03T00:23:56.350Z,22.01
2022-11-03T00:26:25.777Z,21.92
2022-11-03T00:28:56.455Z,22.01
2022-11-03T00:31:26.342Z,21.98
2022-11-03T00:33:55.512Z,22.00
2022-11-03T00:36:25.308Z,21.99
2022-11-03T00:38:53.808Z,21.99
2022-11-03T00:41:22.999Z,22.01
2022-11-03T00:43:51.771Z,22.03
2022-11-03T00:46:22.744Z,22.03
2022-11-03T00:48:51.291Z,22.02
2022-11-03T00:51:20.719Z,22.03
2022-11-03T00:53:50.105Z,22.04
2022-11-03T00:56:19.720Z,22.01
2022-11-03T00:58:47.900Z,22.03
2022-11-03T01:01:18.453Z,22.01
2022-11-03T01:04:03.479Z,22.03
2022-11-03T01:06:50.322Z,22.01
2022-11-03T01:09:18.763Z,21.97
2022-11-03T01:11:54.500Z,22.01
2022-11-03T01:14:22.560Z,22.00
2022-11-03T01:16:50.483Z,22.00
2022-11-03T01:19:19.912Z,21.87
2022-11-03T01:21:47.924Z,21.97
2022-11-03T01:24:15.811Z,21.95
2022-11-03T01:26:43.842Z,21.97
2022-11-03T01:29:11.842Z,21.95
2022-11-03T01:31:39.848Z,21.93
2022-11-03T01:34:07.848Z,21.93
2022-11-03T01:36:37.106Z,21.91
2022-11-03T01:39:05.087Z,21.88
2022-11-03T01:41:32.996Z,21.87
2022-11-03T01:44:35.917Z,21.84
2022-11-03T01:47:19.278Z,21.81
2022-11-03T01:49:51.311Z,21.82
2022-11-03T01:52:25.301Z,21.83
2022-11-03T01:54:58.206Z,21.81
2022-11-03T01:57:33.860Z,21.80
2022-11-03T02:00:03.452Z,21.80
2022-11-03T02:02:40.890Z,21.79
2022-11-03T02:05:11.716Z,21.80
2022-11-03T02:07:47.037Z,21.80
2022-11-03T02:10:15.182Z,21.77
2022-11-03T02:12:44.475Z,21.76
2022-11-03T02:15:14.982Z,21.77
2022-11-03T02:17:43.928Z,21.76
2022-11-03T02:20:15.190Z,21.76
2022-11-03T02:23:21.223Z,21.74
2022-11-03T02:25:53.446Z,21.72
2022-11-03T02:28:24.074Z,21.61
2022-11-03T02:31:00.839Z,21.59
2022-11-03T02:33:38.805Z,21.67
2022-11-03T02:36:13.498Z,21.70
2022-11-03T02:38:48.515Z,21.69
2022-11-03T02:41:19.815Z,21.67
2022-11-03T02:43:48.951Z,21.65
2022-11-03T02:46:18.386Z,21.63
2022-11-03T02:48:46.933Z,21.62
2022-11-03T02:51:14.836Z,21.61
2022-11-03T02:53:49.131Z,21.60
2022-11-03T02:56:23.168Z,21.60
2022-11-03T02:58:58.804Z,21.58
2022-11-03T03:01:34.612Z,21.56
2022-11-03T03:04:07.358Z,21.56
2022-11-03T03:06:39.465Z,21.54
2022-11-03T03:09:14.172Z,21.53
2022-11-03T03:11:46.070Z,21.52
2022-11-03T03:14:18.384Z,21.51
2022-11-03T03:16:52.852Z,21.53
2022-11-03T03:19:43.242Z,21.53
2022-11-03T03:22:17.588Z,21.49
2022-11-03T03:24:52.763Z,21.54
2022-11-03T03:27:26.360Z,21.52
2022-11-03T03:29:58.723Z,21.50
2022-11-03T03:32:29.939Z,21.52
2022-11-03T03:35:00.507Z,21.51
2022-11-03T03:37:30.496Z,21.51
2022-11-03T03:40:04.710Z,21.52
2022-11-03T03:42:35.559Z,21.50
2022-11-03T03:45:05.456Z,21.51
2022-11-03T03:47:35.728Z,21.47
2022-11-03T03:50:04.150Z,21.51
2022-11-03T03:52:34.752Z,21.50
2022-11-03T03:55:03.006Z,21.50
2022-11-03T03:57:34.346Z,21.48
2022-11-03T04:00:02.256Z,21.50
2022-11-03T04:02:40.287Z,21.48
2022-11-03T04:05:08.351Z,21.47
2022-11-03T04:07:48.507Z,21.48
2022-11-03T04:10:17.292Z,21.44
2022-11-03T04:13:04.958Z,21.43
2022-11-03T04:15:51.186Z,21.42
2022-11-03T04:18:37.315Z,21.43
2022-11-03T04:21:23.536Z,21.41
2022-11-03T04:23:51.512Z,21.40
2022-11-03T04:26:23.032Z,21.42
2022-11-03T04:28:54.112Z,21.43
2022-11-03T04:31:22.643Z,21.43
2022-11-03T04:33:50.528Z,21.45
2022-11-03T04:36:21.770Z,21.46
2022-11-03T04:38:50.527Z,21.46
2022-11-03T04:41:20.907Z,21.45
2022-11-03T04:43:49.598Z,21.46
2022-11-03T04:46:25.938Z,21.47
2022-11-03T04:48:54.546Z,21.45
2022-11-03T04:51:25.222Z,21.47
2022-11-03T04:53:56.629Z,21.45
2022-11-03T04:56:26.050Z,21.44
2022-11-03T04:58:55.027Z,21.45
2022-11-03T05:01:25.357Z,21.33
2022-11-03T05:03:55.435Z,21.46
2022-11-03T05:06:24.799Z,21.44
2022-11-03T05:08:56.819Z,21.45
2022-11-03T05:11:31.925Z,21.44
2022-11-03T05:14:02.821Z,21.43
2022-11-03T05:16:32.742Z,21.42
2022-11-03T05:19:01.154Z,21.40
2022-11-03T05:21:29.558Z,21.39
2022-11-03T05:24:02.405Z,21.40
2022-11-03T05:26:33.939Z,21.38
2022-11-03T05:29:04.681Z,21.36
2022-11-03T05:31:36.415Z,21.35
2022-11-03T05:34:26.223Z,21.36
2022-11-03T05:36:54.186Z,21.33
2022-11-03T05:39:29.883Z,21.33
2022-11-03T05:41:59.284Z,21.31
2022-11-03T05:44:32.100Z,21.30
2022-11-03T05:47:05.895Z,21.26
2022-11-03T05:49:36.317Z,21.26
2022-11-03T05:52:04.381Z,21.29
2022-11-03T05:54:35.211Z,21.30
2022-11-03T05:57:03.171Z,21.30
2022-11-03T05:59:31.106Z,21.30
2022-11-03T06:02:02.079Z,21.29
2022-11-03T06:04:33.909Z,21.29
2022-11-03T06:07:05.072Z,21.29
2022-11-03T06:09:34.881Z,21.27
2022-11-03T06:12:06.652Z,21.28
2022-11-03T06:14:37.438Z,21.27
2022-11-03T06:17:08.522Z,21.27
2022-11-03T06:19:39.362Z,21.24
2022-11-03T06:22:15.411Z,21.21
2022-11-03T06:24:43.742Z,21.22
2022-11-03T06:27:15.463Z,21.22
2022-11-03T06:29:47.683Z,21.20
2022-11-03T06:32:17.043Z,21.18
2022-11-03T06:34:48.374Z,21.19
2022-11-03T06:37:21.138Z,21.18
2022-11-03T06:39:49.651Z,21.16
2022-11-03T06:42:20.825Z,21.16
2022-11-03T06:44:51.151Z,21.11
2022-11-03T06:47:25.177Z,21.15
2022-11-03T06:49:55.888Z,21.14
2022-11-03T06:52:27.570Z,21.09
2022-11-03T06:55:02.485Z,21.12
2022-11-03T06:57:35.016Z,20.99
2022-11-03T07:00:20.414Z,21.10
2022-11-03T07:03:07.092Z,21.11
2022-11-03T07:05:35.895Z,21.09
2022-11-03T07:08:12.552Z,21.09
2022-11-03T07:10:40.503Z,21.08
2022-11-03T07:13:15.172Z,20.98
2022-11-03T07:15:45.100Z,21.06
2022-11-03T07:18:23.047Z,20.97
2022-11-03T07:20:52.518Z,21.04
2022-11-03T07:23:23.342Z,21.07
2022-11-03T07:25:55.112Z,21.08
2022-11-03T07:28:25.657Z,21.08
2022-11-03T07:30:53.717Z,21.07
2022-11-03T07:33:26.564Z,21.09
2022-11-03T07:38:49.175Z,21.09
2022-11-03T07:41:20.593Z,21.10
2022-11-03T07:43:55.826Z,21.10
2022-11-03T07:46:25.230Z,21.10
2022-11-03T07:48:56.649Z,21.10
2022-11-03T07:51:27.234Z,21.09
2022-11-03T07:53:58.035Z,21.09
2022-11-03T07:56:28.271Z,21.09
2022-11-03T07:59:01.578Z,21.10
2022-11-03T08:01:32.617Z,21.12
2022-11-03T08:04:05.750Z,21.14
2022-11-03T08:06:34.423Z,21.14
2022-11-03T08:09:02.307Z,21.16
2022-11-03T08:11:30.282Z,21.15
2022-11-03T08:13:58.544Z,21.19
2022-11-03T08:16:26.645Z,21.20
2022-11-03T08:18:54.542Z,21.22
2022-11-03T08:21:24.196Z,21.26
2022-11-03T08:23:52.414Z,21.12
2022-11-03T08:26:20.347Z,21.14
2022-11-03T08:28:48.434Z,21.28
2022-11-03T08:31:16.335Z,21.28
2022-11-03T08:33:44.613Z,21.30
2022-11-03T08:36:12.950Z,21.32
2022-11-03T08:38:42.331Z,21.34
2022-11-03T08:41:10.243Z,21.34
2022-11-03T08:43:38.112Z,21.36
2022-11-03T08:46:15.897Z,21.39
2022-11-03T08:48:45.008Z,21.39
2022-11-03T08:51:14.058Z,21.41
2022-11-03T08:53:44.042Z,21.36
2022-11-03T08:56:13.685Z,21.42
2022-11-03T08:58:44.889Z,21.42
2022-11-03T09:01:13.001Z,21.43
2022-11-03T09:03:41.274Z,21.45
2022-11-03T09:06:09.684Z,21.48
2022-11-03T09:11:26.858Z,21.51
2022-11-03T09:13:54.743Z,21.54
2022-11-03T09:16:22.683Z,21.55
2022-11-03T09:18:50.618Z,21.54
2022-11-03T09:21:18.533Z,21.57
2022-11-03T09:23:46.526Z,21.55
2022-11-03T09:26:14.448Z,21.55
2022-11-03T09:28:43.721Z,21.57
2022-11-03T09:31:11.632Z,21.57
2022-11-03T09:33:39.531Z,21.59
2022-11-03T09:36:08.047Z,21.61
2022-11-03T09:38:35.926Z,21.64
2022-11-03T09:41:13.458Z,21.64
2022-11-03T09:43:55.108Z,21.68
2022-11-03T09:46:23.114Z,21.69
2022-11-03T09:48:51.092Z,21.71
2022-11-03T09:51:21.806Z,21.73
2022-11-03T09:53:49.997Z,21.72
2022-11-03T09:56:20.444Z,21.74
2022-11-03T09:58:53.990Z,21.73
2022-11-03T10:01:23.953Z,21.75
2022-11-03T10:03:52.308Z,21.73
2022-11-03T10:06:21.364Z,21.73
2022-11-03T10:08:50.390Z,21.74
2022-11-03T10:11:18.791Z,21.68
2022-11-03T10:13:49.080Z,21.69
2022-11-03T10:16:19.807Z,21.77
2022-11-03T10:18:49.607Z,21.80
2022-11-03T10:21:19.321Z,21.80
2022-11-03T10:23:47.246Z,21.78
2022-11-03T10:26:19.011Z,21.80
2022-11-03T10:29:00.859Z,21.81
2022-11-03T10:31:36.841Z,21.80
2022-11-03T10:34:07.768Z,21.76
2022-11-03T10:36:36.325Z,21.77
2022-11-03T10:39:26.713Z,21.66
2022-11-03T10:41:59.445Z,21.78
2022-11-03T10:44:28.679Z,21.76
2022-11-03T10:46:58.603Z,21.77
2022-11-03T10:49:29.419Z,21.64
2022-11-03T10:52:09.320Z,21.76
2022-11-03T10:54:38.183Z,21.72
2022-11-03T10:57:06.970Z,21.75
2022-11-03T10:59:38.884Z,21.76
2022-11-03T11:02:16.293Z,21.74
2022-11-03T11:04:47.004Z,21.73
2022-11-03T11:07:23.289Z,21.74
2022-11-03T11:09:51.487Z,21.69
2022-11-03T11:12:23.329Z,21.61
2022-11-03T11:14:56.762Z,21.72
2022-11-03T11:17:55.046Z,21.71
2022-11-03T11:20:34.483Z,21.69
2022-11-03T11:23:50.115Z,21.69
2022-11-03T11:26:33.462Z,21.67
2022-11-03T11:29:45.501Z,21.68
2022-11-03T11:32:50.197Z,21.65
2022-11-03T11:35:40.000Z,21.53
2022-11-03T11:38:44.021Z,21.65
2022-11-03T11:41:13.288Z,21.65
2022-11-03T11:43:41.219Z,21.66
2022-11-03T11:46:39.854Z,21.67
2022-11-03T11:49:20.393Z,21.66
2022-11-03T11:51:48.667Z,21.64
2022-11-03T11:54:20.869Z,21.66
2022-11-03T11:56:51.185Z,21.65
2022-11-03T11:59:25.391Z,21.66
2022-11-03T12:01:56.982Z,21.66
2022-11-03T12:04:27.765Z,21.65
2022-11-03T12:06:57.700Z,21.65
2022-11-03T12:09:28.059Z,21.52
2022-11-03T12:12:00.671Z,21.66
2022-11-03T12:14:35.549Z,21.67
2022-11-03T12:17:34.194Z,21.66
2022-11-03T12:20:02.102Z,21.47
2022-11-03T12:22:43.295Z,21.65
2022-11-03T12:25:40.224Z,21.66
2022-11-03T12:28:09.952Z,21.65
2022-11-03T12:30:46.857Z,21.64
2022-11-03T12:33:14.952Z,21.65
2022-11-03T12:35:43.490Z,21.66
2022-11-03T12:38:11.369Z,21.67
2022-11-03T12:40:39.272Z,21.68
2022-11-03T12:43:07.458Z,21.68
2022-11-03T12:45:36.931Z,21.69
2022-11-03T12:48:06.144Z,21.62
2022-11-03T12:50:34.114Z,21.67
2022-11-03T12:53:01.993Z,21.68
2022-11-03T12:55:29.862Z,21.69
2022-11-03T12:57:57.748Z,21.69
2022-11-03T13:00:25.802Z,21.71
2022-11-03T13:02:55.190Z,21.75
2022-11-03T13:05:23.214Z,21.60
2022-11-03T13:07:51.071Z,21.76
2022-11-03T13:10:19.035Z,21.78
2022-11-03T13:12:46.876Z,21.81
2022-11-03T13:15:15.838Z,21.84
2022-11-03T13:18:13.051Z,21.87
2022-11-03T13:20:33.683Z,21.89
2022-11-03T13:23:01.634Z,21.82
2022-11-03T13:25:29.863Z,21.93
2022-11-03T13:27:58.137Z,21.97
2022-11-03T13:30:27.896Z,21.91
2022-11-03T13:32:55.900Z,21.94
2022-11-03T13:35:24.135Z,21.98
2022-11-03T13:37:53.387Z,21.99
2022-11-03T13:43:09.582Z,21.97
2022-11-03T13:45:37.685Z,21.77
2022-11-03T13:50:53.861Z,22.01
2022-11-03T13:56:16.947Z,22.05
2022-11-03T14:01:37.795Z,21.95
2022-11-03T14:06:54.677Z,22.04
2022-11-03T14:09:24.245Z,22.07
2022-11-03T14:12:10.142Z,22.03
2022-11-03T14:14:38.741Z,22.08
2022-11-03T14:17:06.650Z,22.10
2022-11-03T14:19:41.555Z,22.10
2022-11-03T14:22:11.780Z,22.11
2022-11-03T14:24:41.220Z,22.13
2022-11-03T14:27:09.180Z,22.13
2022-11-03T14:29:37.169Z,22.16
2022-11-03T14:32:05.468Z,22.18
2022-11-03T14:34:33.454Z,22.18
2022-11-03T14:37:01.489Z,22.20
2022-11-03T14:39:29.572Z,22.19
2022-11-03T14:42:03.553Z,22.20
2022-11-03T14:44:31.886Z,22.20
2022-11-03T14:47:01.393Z,22.22
2022-11-03T14:49:29.426Z,22.14
2022-11-03T14:51:58.016Z,22.21
2022-11-03T14:54:26.349Z,22.21
2022-11-03T14:56:54.269Z,22.21
2022-11-03T14:59:24.377Z,22.20
2022-11-03T15:01:53.750Z,22.20
2022-11-03T15:04:24.509Z,22.20
2022-11-03T15:06:52.512Z,22.18
2022-11-03T15:09:20.632Z,22.20
2022-11-03T15:11:48.589Z,22.19
2022-11-03T15:14:16.452Z,22.19
2022-11-03T15:16:46.237Z,22.19
2022-11-03T15:19:14.595Z,22.20
2022-11-03T15:21:42.523Z,22.20
2022-11-03T15:26:58.590Z,22.17
2022-11-03T15:29:26.532Z,22.17
2022-11-03T15:31:55.796Z,22.18
2022-11-03T15:34:23.728Z,22.12
2022-11-03T15:36:51.649Z,22.19
2022-11-03T15:39:19.498Z,22.19
2022-11-03T15:41:47.397Z,22.20
2022-11-03T15:44:15.392Z,22.20
2022-11-03T15:46:43.367Z,22.17
2022-11-03T15:49:12.598Z,22.22
2022-11-03T15:51:40.756Z,22.21
2022-11-03T15:54:09.113Z,22.21
2022-11-03T15:56:37.011Z,22.22
2022-11-03T15:59:04.935Z,22.24
2022-11-03T16:01:32.970Z,22.23
2022-11-03T16:04:01.148Z,22.24
2022-11-03T16:09:18.318Z,22.24
2022-11-03T16:11:46.229Z,22.27
2022-11-03T16:14:15.031Z,22.27
2022-11-03T16:16:42.939Z,22.27
2022-11-03T16:19:11.116Z,22.26
2022-11-03T16:21:40.398Z,22.26
2022-11-03T16:24:09.097Z,22.26
2022-11-03T16:26:37.138Z,22.27
2022-11-03T16:29:05.034Z,22.27
2022-11-03T16:31:33.542Z,22.28
2022-11-03T16:34:01.474Z,22.28
2022-11-03T16:36:29.772Z,22.29
2022-11-03T16:38:59.035Z,22.29
2022-11-03T16:41:27.010Z,22.28
2022-11-03T16:43:54.872Z,22.28
2022-11-03T16:46:22.779Z,22.30
2022-11-03T16:48:50.883Z,22.30
2022-11-03T16:51:19.377Z,22.32
2022-11-03T16:53:47.302Z,22.32
2022-11-03T16:56:16.581Z,22.78
2022-11-03T16:58:44.459Z,22.52
2022-11-03T17:01:12.498Z,22.46
2022-11-03T17:03:40.571Z,22.44
2022-11-03T17:06:08.544Z,22.44
2022-11-03T17:08:52.300Z,22.43
2022-11-03T17:11:36.550Z,22.42
2022-11-03T17:14:06.352Z,22.40
2022-11-03T17:16:34.434Z,22.39
2022-11-03T17:19:02.417Z,22.32
2022-11-03T17:21:30.615Z,22.16
2022-11-03T17:23:59.859Z,22.39
2022-11-03T17:26:40.367Z,22.40
2022-11-03T17:29:16.755Z,22.38
2022-11-03T17:31:44.690Z,22.38
2022-11-03T17:34:13.008Z,22.37
2022-11-03T17:36:41.426Z,22.37
2022-11-03T17:39:10.711Z,22.35
2022-11-03T17:41:40.000Z,22.32
2022-11-03T17:44:14.487Z,22.16
2022-11-03T17:46:42.419Z,22.32
2022-11-03T17:49:10.488Z,22.33
2022-11-03T17:51:42.413Z,22.34
2022-11-03T17:54:17.066Z,22.33
2022-11-03T17:56:46.459Z,22.32
2022-11-03T17:59:16.265Z,22.32
2022-11-03T18:01:45.339Z,22.31
2022-11-03T18:06:47.520Z,22.32
2022-11-03T18:09:16.365Z,22.34
2022-11-03T18:12:03.404Z,22.34
2022-11-03T18:14:31.599Z,22.35
2022-11-03T18:17:00.097Z,22.31
2022-11-03T18:19:28.052Z,22.35
2022-11-03T18:21:56.066Z,22.35
2022-11-03T18:24:23.913Z,22.35
2022-11-03T18:26:53.172Z,22.37
2022-11-03T18:29:21.041Z,22.34
2022-11-03T18:31:50.749Z,22.24
2022-11-03T18:34:22.749Z,22.37
2022-11-03T18:36:52.648Z,22.35
2022-11-03T18:39:24.218Z,22.33
2022-11-03T18:41:53.587Z,22.33
2022-11-03T18:44:24.138Z,22.33
2022-11-03T18:46:54.543Z,22.19
2022-11-03T18:49:23.166Z,22.31
2022-11-03T18:51:56.477Z,22.31
2022-11-03T18:54:30.211Z,22.30
2022-11-03T18:56:59.581Z,22.22
2022-11-03T18:59:31.793Z,22.27
2022-11-03T19:02:00.232Z,22.24
2022-11-03T19:04:28.468Z,22.27
2022-11-03T19:06:58.507Z,22.25
2022-11-03T19:09:27.712Z,22.26
2022-11-03T19:11:58.662Z,22.24
2022-11-03T19:14:32.829Z,22.24
2022-11-03T19:17:21.894Z,22.22
2022-11-03T19:19:50.243Z,22.20
2022-11-03T19:22:20.569Z,22.24
2022-11-03T19:24:52.257Z,22.23
2022-11-03T19:27:25.547Z,22.23
2022-11-03T19:29:57.033Z,22.00
2022-11-03T19:32:26.420Z,22.24
2022-11-03T19:34:58.202Z,22.23
2022-11-03T19:37:28.770Z,22.23
2022-11-03T19:40:00.843Z,22.24
2022-11-03T19:42:27.739Z,22.25
2022-11-03T19:44:58.184Z,22.26
2022-11-03T19:47:31.699Z,22.27
2022-11-03T19:50:02.509Z,22.27
2022-11-03T19:52:32.395Z,22.26
2022-11-03T19:55:03.354Z,22.24
2022-11-03T19:57:31.445Z,22.27
2022-11-03T20:00:00.757Z,22.28
2022-11-03T20:02:29.323Z,22.28
2022-11-03T20:04:57.372Z,22.28
2022-11-03T20:07:31.072Z,22.28
2022-11-03T20:10:00.837Z,22.27
2022-11-03T20:12:30.913Z,22.26
2022-11-03T20:15:00.235Z,22.27
2022-11-03T20:17:28.194Z,22.25
2022-11-03T20:19:56.103Z,22.28
2022-11-03T20:22:30.164Z,22.29
2022-11-03T20:25:02.995Z,22.27
2022-11-03T20:27:30.980Z,22.27
2022-11-03T20:30:00.284Z,22.28
2022-11-03T20:32:28.434Z,22.03
2022-11-03T20:34:56.342Z,22.27
2022-11-03T20:37:24.479Z,22.27
2022-11-03T20:39:52.426Z,22.26
2022-11-03T20:42:23.108Z,22.28
2022-11-03T20:44:51.141Z,22.26
2022-11-03T20:47:20.947Z,22.28
2022-11-03T20:49:48.920Z,22.27
2022-11-03T20:52:17.455Z,22.28
2022-11-03T20:54:45.690Z,22.29
2022-11-03T20:57:14.431Z,22.31
2022-11-03T20:59:42.346Z,22.31
2022-11-03T21:02:12.948Z,22.32
2022-11-03T21:04:43.199Z,22.32
2022-11-03T21:07:13.748Z,22.34
2022-11-03T21:09:42.182Z,22.33
2022-11-03T21:12:13.581Z,22.36
2022-11-03T21:15:04.087Z,22.35
2022-11-03T21:17:49.718Z,22.35
2022-11-03T21:20:19.049Z,22.34
2022-11-03T21:22:54.640Z,22.34
2022-11-03T21:25:24.560Z,22.34
2022-11-03T21:27:53.737Z,22.35
2022-11-03T21:30:22.319Z,22.35
2022-11-03T21:32:50.256Z,22.37
2022-11-03T21:35:21.977Z,22.38
2022-11-03T21:37:50.259Z,22.32
2022-11-03T21:40:18.780Z,22.37
2022-11-03T21:43:03.893Z,22.36
2022-11-03T21:45:32.336Z,22.35
2022-11-03T21:48:18.175Z,22.36
2022-11-03T21:50:47.883Z,22.34
2022-11-03T21:53:15.777Z,22.32
2022-11-03T21:55:43.672Z,22.32
2022-11-03T21:58:11.547Z,22.31
2022-11-03T22:00:39.485Z,22.32
2022-11-03T22:03:07.919Z,22.32
2022-11-03T22:05:36.024Z,22.31
2022-11-03T22:08:08.216Z,22.33
2022-11-03T22:10:39.059Z,22.32
2022-11-03T22:13:07.433Z,22.06
2022-11-03T22:15:52.745Z,22.30
2022-11-03T22:18:20.685Z,22.29
2022-11-03T22:21:05.955Z,22.32
2022-11-03T22:23:52.514Z,22.33
2022-11-03T22:26:38.023Z,22.32
2022-11-03T22:29:23.103Z,22.23
2022-11-03T22:31:51.007Z,22.31
2022-11-03T22:34:36.331Z,22.31
2022-11-03T22:37:04.330Z,22.31
2022-11-03T22:39:51.006Z,22.34
2022-11-03T22:42:36.248Z,22.34
2022-11-03T22:45:21.620Z,22.33
2022-11-03T22:47:57.114Z,22.33
2022-11-03T22:50:25.687Z,22.32
2022-11-03T22:52:53.550Z,22.34
2022-11-03T22:55:22.205Z,22.36
2022-11-03T22:57:50.419Z,22.37
2022-11-03T23:00:20.433Z,22.35
2022-11-03T23:02:48.311Z,22.36
2022-11-03T23:05:16.342Z,22.35
2022-11-03T23:07:44.214Z,22.37
2022-11-03T23:10:12.083Z,22.37
2022-11-03T23:12:41.325Z,22.37
2022-11-03T23:15:27.120Z,22.38
2022-11-03T23:18:12.358Z,22.34
2022-11-03T23:20:57.443Z,22.36
2022-11-03T23:23:42.704Z,22.36
2022-11-03T23:26:10.756Z,22.35
2022-11-03T23:28:40.411Z,22.34
2022-11-03T23:31:08.820Z,22.36
2022-11-03T23:33:37.009Z,22.37
2022-11-03T23:36:05.754Z,22.36
2022-11-03T23:38:34.345Z,22.39
2022-11-03T23:41:03.001Z,22.39
2022-11-03T23:43:30.980Z,22.40
2022-11-03T23:46:17.940Z,22.41
2022-11-03T23:48:48.519Z,22.39
2022-11-03T23:51:17.139Z,22.40
2022-11-03T23:53:46.622Z,22.40
2022-11-03T23:56:32.867Z,22.40
2022-11-03T23:59:01.065Z,22.40
